Time;durP1;ratioP1;P1;durP2;ratioP2;P2;SDS_P1;SDS_P2;PMS_P1;PMS_P2;Temp;Humidity;BMP_temperature;BMP_pressure;BME280_temperature;BME280_humidity;BME280_pressure;Samples;Min_cycle;Max_cycle;Signal;HPM_P1;HPM_P2
2022/03/22 00:01:37;;;;;;;15.68;6.25;;;;;;;0.64;55.81;101717.09;5092232;28;20036;-68
2022/03/22 00:04:05;;;;;;;13.63;6.63;;;;;;;0.58;56.08;101709.09;5093331;28;20127;-68
2022/03/22 00:06:36;;;;;;;12.18;5.43;;;;;;;0.58;56.23;101709.09;5097223;28;20281;-68
2022/03/22 00:09:05;;;;;;;13.88;7.30;;;;;;;0.55;56.70;101709.75;5097462;28;20055;-68
2022/03/22 00:11:34;;;;;;;11.00;4.97;;;;;;;0.66;56.06;101700.47;5097302;28;20044;-68
2022/03/22 00:14:09;;;;;;;13.95;6.50;;;;;;;0.61;56.31;101711.84;5097320;28;20055;-68
2022/03/22 00:16:38;;;;;;;13.73;7.03;;;;;;;0.65;56.00;101703.75;5097258;28;20109;-68
2022/03/22 00:19:28;;;;;;;13.63;5.88;;;;;;;0.67;56.07;101707.25;5097035;28;20037;-68
2022/03/22 00:21:58;;;;;;;10.93;5.43;;;;;;;0.71;55.77;101701.69;5097127;28;20051;-68
2022/03/22 00:24:28;;;;;;;16.05;7.07;;;;;;;0.72;55.74;101698.38;5097099;28;20109;-68
2022/03/22 00:26:56;;;;;;;17.85;7.05;;;;;;;0.49;56.21;101709.31;5097011;28;20044;-68
2022/03/22 00:29:26;;;;;;;14.15;6.97;;;;;;;0.60;56.29;101700.06;5096808;28;20055;-68
2022/03/22 00:31:56;;;;;;;15.55;6.70;;;;;;;0.46;56.38;101704.06;5097292;28;20044;-68
2022/03/22 00:34:25;;;;;;;15.85;7.40;;;;;;;0.55;56.66;101702.22;5097186;28;20139;-68
2022/03/22 00:36:56;;;;;;;15.20;6.90;;;;;;;0.50;56.48;101695.13;5097013;28;20409;-68
2022/03/22 00:39:27;;;;;;;18.20;6.90;;;;;;;0.33;56.69;101700.59;5096856;28;20075;-68
2022/03/22 00:41:57;;;;;;;16.42;6.70;;;;;;;0.40;56.83;101703.66;5096759;28;20503;-68
2022/03/22 00:44:27;;;;;;;14.13;6.25;;;;;;;0.49;56.55;101694.25;5097044;28;20494;-68
2022/03/22 00:46:56;;;;;;;14.30;5.70;;;;;;;0.54;56.17;101697.09;5096862;28;20439;-68
2022/03/22 00:49:26;;;;;;;11.15;5.45;;;;;;;0.52;56.27;101696.13;5096603;28;20279;-68
2022/03/22 00:52:01;;;;;;;15.77;6.28;;;;;;;0.45;56.18;101693.94;5096590;28;20490;-68
2022/03/22 00:54:31;;;;;;;12.70;6.30;;;;;;;0.42;56.71;101701.25;5096560;28;20056;-68
2022/03/22 00:57:00;;;;;;;12.25;5.35;;;;;;;0.31;56.94;101697.09;5096783;28;20044;-69
2022/03/22 01:02:09;;;;;;;13.05;5.70;;;;;;;0.45;56.92;101696.44;5097017;28;20449;-68
2022/03/22 01:04:37;;;;;;;;;;;;;;;0.49;56.74;101688.34;5096672;28;20085;-68
2022/03/22 01:07:06;;;;;;;11.77;4.93;;;;;;;0.48;56.68;101687.47;5096163;28;19973;-68
2022/03/22 01:09:37;;;;;;;13.88;6.07;;;;;;;0.48;56.82;101691.66;5096199;28;20071;-68
2022/03/22 01:12:07;;;;;;;13.52;5.95;;;;;;;0.54;56.62;101682.91;5097027;28;20044;-68
2022/03/22 01:14:38;;;;;;;10.95;5.68;;;;;;;0.55;56.11;101683.78;5096146;28;20055;-68
2022/03/22 01:17:07;;;;;;;12.93;6.47;;;;;;;0.59;56.06;101685.75;5095363;28;20495;-68
2022/03/22 01:19:37;;;;;;;11.20;5.57;;;;;;;0.56;56.34;101680.47;5096622;28;20035;-68
2022/03/22 01:22:06;;;;;;;15.68;6.10;;;;;;;0.60;56.00;101682.47;5096002;28;20068;-68
2022/03/22 01:24:37;;;;;;;11.05;5.32;;;;;;;0.67;55.75;101680.47;5095834;28;20048;-68
2022/03/22 01:27:06;;;;;;;11.43;5.30;;;;;;;0.65;55.63;101666.94;5095837;28;20048;-68
2022/03/22 01:29:34;;;;;;;16.30;5.30;;;;;;;0.66;55.82;101667.81;5095564;28;20555;-68
2022/03/22 01:32:04;;;;;;;13.40;4.95;;;;;;;0.67;55.46;101664.56;5095898;28;20268;-68
2022/03/22 01:34:34;;;;;;;14.05;6.18;;;;;;;0.53;55.75;101650.13;5061440;28;20047;-68
2022/03/22 01:37:03;;;;;;;13.27;5.63;;;;;;;0.45;56.02;101668.81;5095639;28;20075;-68
2022/03/22 01:39:32;;;;;;;13.50;5.07;;;;;;;0.42;56.11;101671.97;5095954;28;20036;-68
2022/03/22 01:42:02;;;;;;;15.85;6.82;;;;;;;0.31;56.21;101656.91;5096498;28;20272;-68
2022/03/22 01:44:33;;;;;;;15.88;6.20;;;;;;;0.55;55.98;101678.75;5095642;28;20044;-68
2022/03/22 01:47:06;;;;;;;;;;;;;;;0.48;55.99;101667.38;5096358;28;20446;-68
2022/03/22 01:49:35;;;;;;;11.13;4.78;;;;;;;0.45;56.08;101671.31;5095783;28;19920;-68
2022/03/22 01:52:07;;;;;;;11.57;4.53;;;;;;;0.35;56.42;101668.91;5094980;28;20052;-68
2022/03/22 01:54:37;;;;;;;11.02;5.03;;;;;;;0.24;56.62;101674.81;5095382;28;20044;-68
2022/03/22 01:57:10;;;;;;;11.50;5.68;;;;;;;0.35;56.63;101666.41;5095239;28;20036;-68
2022/03/22 01:59:39;;;;;;;13.48;5.15;;;;;;;0.34;56.59;101667.16;5095588;28;20509;-68
2022/03/22 02:07:31;;;;;;;12.32;4.93;;;;;;;0.34;56.80;101669.66;5095406;28;20067;-69
2022/03/22 02:10:03;;;;;;;10.05;4.20;;;;;;;0.41;56.32;101670.22;5095066;28;20052;-68
2022/03/22 02:12:35;;;;;;;14.77;4.93;;;;;;;0.45;56.18;101666.31;5095328;28;20494;-69
2022/03/22 02:15:05;;;;;;;7.43;4.57;;;;;;;0.41;56.39;101659.28;5095023;28;20048;-69
2022/03/22 02:17:34;;;;;;;10.27;4.97;;;;;;;0.23;56.52;101668.91;5094923;28;20047;-69
2022/03/22 02:20:03;;;;;;;10.65;4.88;;;;;;;0.27;56.91;101659.94;5095682;28;20440;-68
2022/03/22 02:22:42;;;;;;;11.65;4.80;;;;;;;0.31;56.67;101666.97;5077223;28;20612;-68
2022/03/22 02:25:16;;;;;;;10.52;4.65;;;;;;;0.17;56.88;101663.44;5094752;28;20056;-69
2022/03/22 02:27:47;;;;;;;10.43;5.07;;;;;;;0.08;57.30;101650.22;5094492;28;20143;-68
2022/03/22 02:30:16;;;;;;;9.60;4.40;;;;;;;-0.08;57.63;101660.81;5094050;28;20123;-68
2022/03/22 02:32:51;;;;;;;11.93;4.80;;;;;;;-0.01;57.75;101663.00;5094626;28;20079;-68
2022/03/22 02:35:20;;;;;;;12.73;4.95;;;;;;;-0.07;57.96;101662.53;5094913;28;20044;-68
2022/03/22 02:37:49;;;;;;;10.85;4.53;;;;;;;-0.08;58.23;101667.44;5094806;28;20393;-68
2022/03/22 02:40:20;;;;;;;11.13;5.15;;;;;;;-0.12;58.13;101663.84;5094526;28;20055;-68
2022/03/22 02:42:54;;;;;;;10.93;4.68;;;;;;;0.00;58.04;101669.75;5094803;28;20112;-68
2022/03/22 02:45:24;;;;;;;10.60;4.53;;;;;;;-0.01;57.92;101667.13;5094436;28;20063;-68
2022/03/22 02:47:53;;;;;;;11.68;5.20;;;;;;;0.08;57.92;101661.91;5094328;28;20047;-68
2022/03/22 02:50:23;;;;;;;16.40;6.35;;;;;;;0.20;57.34;101667.81;5094238;28;20044;-68
2022/03/22 02:52:51;;;;;;;20.35;6.68;;;;;;;-0.01;57.60;101642.91;5094367;28;20497;-68
2022/03/22 02:55:22;;;;;;;19.57;7.57;;;;;;;0.07;57.23;101675.22;5094618;28;20367;-68
2022/03/22 02:57:51;;;;;;;11.75;5.55;;;;;;;0.12;57.27;101668.91;5094534;28;20489;-68
2022/03/22 03:00:20;;;;;;;12.45;4.50;;;;;;;0.09;57.34;101672.06;5094076;28;20040;-68
2022/03/22 03:02:50;;;;;;;;;;;;;;;-0.13;57.57;101674.66;5094530;28;20143;-68
2022/03/22 03:05:20;;;;;;;12.48;4.20;;;;;;;-0.27;58.05;101672.75;5094011;28;20007;-68
2022/03/22 03:07:50;;;;;;;12.85;4.35;;;;;;;-0.25;58.23;101678.75;5094011;28;20060;-68
2022/03/22 03:10:21;;;;;;;8.35;4.57;;;;;;;-0.26;58.08;101663.56;5094114;28;20040;-68
2022/03/22 03:13:00;;;;;;;11.27;4.80;;;;;;;-0.26;58.23;101674.50;5093999;28;20048;-68
2022/03/22 03:15:29;;;;;;;9.73;4.72;;;;;;;-0.22;58.28;101680.63;5093920;28;20109;-68
2022/03/22 03:17:58;;;;;;;10.60;4.07;;;;;;;-0.19;58.17;101681.72;5093924;28;20490;-68
2022/03/22 03:20:28;;;;;;;11.48;4.78;;;;;;;-0.20;58.19;101685.00;5093780;28;20062;-68
2022/03/22 03:22:57;;;;;;;;;;;;;;;-0.20;58.26;101681.59;5094503;28;20048;-68
2022/03/22 03:25:28;;;;;;;8.93;4.55;;;;;;;-0.16;58.17;101681.06;5093640;28;20358;-68
2022/03/22 03:27:57;;;;;;;12.60;4.78;;;;;;;-0.22;58.12;101681.50;5093512;28;20048;-68
2022/03/22 03:30:25;;;;;;;11.10;4.50;;;;;;;-0.25;58.42;101681.28;5093657;28;20055;-68
2022/03/22 03:32:55;;;;;;;10.57;4.63;;;;;;;-0.26;58.39;101687.03;5093681;28;20142;-68
2022/03/22 03:35:24;;;;;;;11.63;5.40;;;;;;;-0.24;58.40;101682.16;5092476;28;20052;-68
2022/03/22 03:37:53;;;;;;;13.67;4.77;;;;;;;-0.31;58.61;101680.78;5093586;28;20036;-68
2022/03/22 03:41:53;;;;;;;11.67;5.00;;;;;;;-0.48;58.46;101657.75;5093314;28;20043;-68
2022/03/22 03:43:11;;;;;;;7.00;3.50;;;;;;;-0.28;58.59;101683.53;5093655;28;20338;-69
2022/03/22 03:48:19;;;;;;;10.65;4.13;;;;;;;-0.34;58.67;101685.63;5093590;28;20078;-69
2022/03/22 03:50:48;;;;;;;9.93;4.90;;;;;;;-0.45;58.97;101681.41;5093711;28;20043;-69
2022/03/22 03:53:16;;;;;;;10.05;4.55;;;;;;;-0.53;59.21;101682.50;5093550;28;20115;-69
2022/03/22 03:55:45;;;;;;;10.98;4.57;;;;;;;-0.82;59.76;101681.91;5093472;28;20138;-68
2022/03/22 03:58:16;;;;;;;10.52;4.70;;;;;;;-0.81;60.12;101683.63;5093767;28;20478;-68
2022/03/22 04:00:45;;;;;;;9.98;4.60;;;;;;;-0.79;59.97;101687.13;5093403;28;20044;-68
2022/03/22 04:03:14;;;;;;;10.00;4.13;;;;;;;-0.88;60.43;101689.81;5093430;28;20044;-69
2022/03/22 04:05:44;;;;;;;11.67;5.23;;;;;;;-1.02;60.43;101692.03;5093444;28;20028;-68
2022/03/22 04:08:13;;;;;;;11.88;6.00;;;;;;;-1.18;60.92;101684.09;5093656;28;20281;-68
2022/03/22 04:10:43;;;;;;;14.85;5.32;;;;;;;-1.15;61.70;101696.84;5093689;28;20109;-68
2022/03/22 04:13:12;;;;;;;10.37;4.60;;;;;;;-1.18;61.54;101684.97;5093647;28;20047;-68
2022/03/22 04:15:43;;;;;;;10.00;4.35;;;;;;;-1.02;61.57;101697.03;5093898;28;20040;-68
2022/03/22 04:18:12;;;;;;;12.25;4.90;;;;;;;-0.92;61.29;101700.38;5093359;28;20048;-68
2022/03/22 04:20:41;;;;;;;11.70;5.00;;;;;;;-0.95;61.57;101699.25;5093262;28;20044;-68
2022/03/22 04:23:10;;;;;;;10.13;4.43;;;;;;;-1.07;61.36;101699.19;5093249;28;20036;-68
2022/03/22 04:25:39;;;;;;;9.77;4.60;;;;;;;-1.13;61.70;101702.84;5093091;28;20097;-68
2022/03/22 04:33:26;;;;;;;9.18;4.72;;;;;;;-0.84;61.00;101695.97;5093438;28;20054;-68
2022/03/22 04:35:55;;;;;;;12.85;5.40;;;;;;;-0.84;61.23;101713.50;5093093;28;20529;-68
2022/03/22 04:38:25;;;;;;;12.02;5.13;;;;;;;-0.67;61.21;101713.13;5092977;28;20068;-68
2022/03/22 04:40:54;;;;;;;10.45;4.90;;;;;;;-0.57;60.78;101705.56;5093367;28;20393;-68
2022/03/22 04:43:25;;;;;;;15.15;5.45;;;;;;;-0.70;60.59;101705.41;5093098;28;20055;-68
2022/03/22 04:45:56;;;;;;;13.18;5.13;;;;;;;-0.63;60.99;101706.75;5093130;28;20043;-68
2022/03/22 04:48:25;;;;;;;16.25;7.07;;;;;;;-0.58;60.39;101708.84;5093078;28;20048;-68
2022/03/22 04:56:43;;;;;;;16.90;7.23;;;;;;;-0.69;60.56;101712.16;5092977;28;20086;-69
2022/03/22 04:59:00;;;;;;;20.20;8.63;;;;;;;-0.73;61.16;101712.69;5096491;28;20040;-69
2022/03/22 05:01:30;;;;;;;15.38;7.60;;;;;;;-0.73;60.68;101712.69;5097200;28;20044;-68
2022/03/22 05:03:59;;;;;;;13.38;6.25;;;;;;;-0.66;60.45;101704.88;5096361;28;20044;-69
2022/03/22 05:06:28;;;;;;;12.07;5.68;;;;;;;-0.61;60.74;101717.75;5096218;28;20040;-69
2022/03/22 05:08:57;;;;;;;10.18;4.80;;;;;;;-0.54;60.60;101713.31;5096287;28;20043;-69
2022/03/22 05:11:26;;;;;;;11.60;4.78;;;;;;;-0.39;60.48;101713.59;5096176;28;20056;-69
2022/03/22 05:13:55;;;;;;;10.37;5.20;;;;;;;-0.17;59.64;101707.78;5096362;28;20459;-69
2022/03/22 05:16:25;;;;;;;11.00;5.38;;;;;;;-0.01;59.15;101712.31;5096376;28;20627;-69
2022/03/22 05:18:55;;;;;;;12.10;5.45;;;;;;;-0.04;59.00;101717.97;5096027;28;20093;-69
2022/03/22 05:21:25;;;;;;;12.98;5.35;;;;;;;-0.06;59.10;101713.59;5096350;28;20055;-69
2022/03/22 05:23:54;;;;;;;;;;;;;;;0.04;58.69;101711.00;5096253;28;20093;-69
2022/03/22 05:26:24;;;;;;;10.65;4.35;;;;;;;0.22;58.49;101706.44;5095823;28;19993;-68
2022/03/22 05:28:53;;;;;;;9.88;4.47;;;;;;;0.38;58.09;101706.81;5095421;28;20044;-68
2022/03/22 05:31:22;;;;;;;11.73;4.38;;;;;;;0.46;57.64;101714.13;5095651;28;20044;-68
2022/03/22 05:33:53;;;;;;;9.27;4.93;;;;;;;0.49;57.71;101710.97;5096012;28;20048;-68
2022/03/22 05:36:24;;;;;;;11.48;5.57;;;;;;;0.58;57.75;101715.00;5095713;28;20121;-68
2022/03/22 05:38:53;;;;;;;11.77;4.97;;;;;;;0.48;57.36;101701.69;5096294;28;20048;-67
2022/03/22 05:41:22;;;;;;;13.02;5.25;;;;;;;0.53;57.47;101726.34;5096489;28;20047;-67
2022/03/22 05:43:51;;;;;;;13.07;5.72;;;;;;;0.60;57.99;101722.66;5095583;28;20043;-67
2022/03/22 05:46:20;;;;;;;11.67;4.97;;;;;;;1.01;57.18;101718.91;5095520;28;20036;-68
2022/03/22 05:48:50;;;;;;;18.00;6.28;;;;;;;1.21;56.13;101722.78;5095474;28;20063;-67
2022/03/22 05:51:19;;;;;;;13.60;6.15;;;;;;;1.29;55.65;101717.53;5095672;28;20075;-67
2022/03/22 05:53:49;;;;;;;13.70;5.97;;;;;;;1.39;55.23;101718.16;5095238;28;20101;-67
2022/03/22 05:56:18;;;;;;;11.82;5.97;;;;;;;1.53;55.43;101722.50;5095384;28;20135;-67
2022/03/22 05:58:47;;;;;;;20.43;7.23;;;;;;;1.74;55.32;101718.91;5095276;28;20036;-67
2022/03/22 06:01:16;;;;;;;15.83;6.10;;;;;;;2.15;54.42;101720.00;5095230;28;20048;-67
2022/03/22 06:03:45;;;;;;;13.65;6.47;;;;;;;2.49;54.18;101713.84;5095077;28;20052;-67
2022/03/22 06:06:14;;;;;;;11.32;5.05;;;;;;;2.76;52.99;101719.75;5095308;28;20371;-67
2022/03/22 06:08:43;;;;;;;14.15;7.18;;;;;;;2.80;53.07;101725.88;5094817;28;20055;-67
2022/03/22 06:11:14;;;;;;;17.45;7.90;;;;;;;2.85;53.19;101729.56;5095555;28;20102;-67
2022/03/22 06:13:43;;;;;;;16.52;6.82;;;;;;;3.02;51.89;101721.38;5094806;28;20062;-67
2022/03/22 06:16:12;;;;;;;17.23;7.87;;;;;;;3.15;52.25;101723.88;5094972;28;20044;-67
2022/03/22 06:18:42;;;;;;;21.33;8.50;;;;;;;3.25;51.34;101736.28;5094758;28;20280;-67
2022/03/22 06:21:10;;;;;;;20.80;9.93;;;;;;;3.39;51.33;101723.72;5094683;28;20071;-67
2022/03/22 06:23:39;;;;;;;16.60;8.23;;;;;;;3.75;50.61;101734.28;5094952;28;20440;-67
2022/03/22 06:26:08;;;;;;;21.97;9.53;;;;;;;4.02;50.11;101736.78;5094599;28;20285;-67
2022/03/22 06:28:39;;;;;;;20.13;9.23;;;;;;;4.24;49.21;101738.03;5094684;28;20067;-67
2022/03/22 06:31:08;;;;;;;16.80;8.55;;;;;;;4.50;49.15;101727.72;5094578;28;20052;-67
2022/03/22 06:33:37;;;;;;;11.10;5.30;;;;;;;4.67;48.41;101722.84;5094636;28;20044;-67
2022/03/22 06:36:08;;;;;;;14.10;6.72;;;;;;;4.84;47.68;101725.41;5094396;28;20040;-67
2022/03/22 06:38:39;;;;;;;15.38;5.72;;;;;;;5.06;47.86;101729.19;5094906;28;20516;-67
2022/03/22 06:41:08;;;;;;;13.60;5.35;;;;;;;5.23;46.85;101728.44;5094474;28;20044;-67
2022/03/22 06:43:38;;;;;;;12.38;5.40;;;;;;;5.35;46.61;101724.03;5094743;28;20036;-67
2022/03/22 06:46:07;;;;;;;11.43;6.25;;;;;;;5.59;46.82;101723.56;5094286;28;20040;-67
2022/03/22 06:48:36;;;;;;;11.07;5.50;;;;;;;5.77;45.52;101725.38;5094343;28;20461;-67
2022/03/22 06:51:05;;;;;;;14.03;5.83;;;;;;;5.84;46.14;101731.63;5094305;28;20040;-67
2022/03/22 06:53:34;;;;;;;12.60;5.43;;;;;;;5.90;45.73;101722.69;5094116;28;20036;-67
2022/03/22 06:56:04;;;;;;;11.82;5.30;;;;;;;6.10;44.99;101733.84;5094516;28;20072;-67
2022/03/22 06:58:33;;;;;;;10.95;5.07;;;;;;;6.28;45.00;101729.72;5094255;28;20048;-67
2022/03/22 07:01:05;;;;;;;9.65;4.07;;;;;;;6.80;45.02;101729.66;5094210;28;20039;-67
2022/03/22 07:03:34;;;;;;;10.85;4.78;;;;;;;7.02;43.40;101724.78;5094304;28;20040;-67
2022/03/22 07:06:04;;;;;;;7.40;4.13;;;;;;;6.95;42.78;101728.72;5093917;28;20109;-67
2022/03/22 07:08:33;;;;;;;8.93;4.90;;;;;;;7.14;42.68;101726.25;5094017;28;20105;-67
2022/03/22 07:13:40;;;;;;;14.90;5.20;;;;;;;7.62;41.70;101734.31;5094014;28;20078;-67
2022/03/22 07:16:10;;;;;;;10.65;4.90;;;;;;;7.84;41.68;101737.88;5093631;28;20383;-67
2022/03/22 07:18:39;;;;;;;9.07;4.15;;;;;;;8.09;41.37;101739.75;5094132;28;20406;-67
2022/03/22 07:21:09;;;;;;;;;;;;;;;8.32;40.98;101733.13;5094246;28;20046;-67
2022/03/22 07:23:39;;;;;;;8.18;4.30;;;;;;;8.44;40.81;101733.63;5093776;28;20384;-67
2022/03/22 07:26:08;;;;;;;;;;;;;;;8.59;40.80;101739.34;5094040;28;20048;-67
2022/03/22 07:28:37;;;;;;;11.48;4.78;;;;;;;8.56;39.73;101734.13;5093453;28;19966;-67
2022/03/22 07:31:06;;;;;;;5.75;3.22;;;;;;;8.53;39.36;101734.88;5093917;28;20509;-67
2022/03/22 07:33:37;;;;;;;6.70;3.80;;;;;;;8.79;39.76;101735.91;5094241;28;20409;-67
2022/03/22 07:36:06;;;;;;;10.48;4.85;;;;;;;8.89;39.19;101735.47;5093675;28;20048;-67
2022/03/22 07:38:35;;;;;;;8.73;4.50;;;;;;;9.04;39.69;101735.19;5093484;28;20044;-67
2022/03/22 07:41:04;;;;;;;8.38;3.67;;;;;;;9.24;39.42;101730.03;5093602;28;20066;-67
2022/03/22 07:43:33;;;;;;;9.35;4.95;;;;;;;9.37;38.82;101737.34;5093626;28;20048;-67
2022/03/22 07:46:04;;;;;;;9.35;4.95;;;;;;;9.55;38.33;101731.19;5093473;28;20044;-67
2022/03/22 07:48:33;;;;;;;9.60;4.97;;;;;;;9.62;38.06;101738.22;5093432;28;20043;-67
2022/03/22 07:53:43;;;;;;;10.50;5.38;;;;;;;9.90;37.44;101740.94;5106451;28;20048;-67
2022/03/22 07:56:13;;;;;;;17.38;5.60;;;;;;;9.89;36.70;101739.19;5113024;28;20093;-67
2022/03/22 07:58:42;;;;;;;10.93;5.22;;;;;;;10.07;37.57;101744.94;5101928;28;20071;-67
2022/03/22 08:01:11;;;;;;;10.30;5.28;;;;;;;10.26;35.84;101747.34;5113630;28;20055;-67
2022/03/22 08:03:40;;;;;;;10.60;5.60;;;;;;;10.41;36.08;101742.75;5113753;28;20066;-67
2022/03/22 08:06:10;;;;;;;12.93;6.27;;;;;;;10.48;35.67;101738.69;5113621;28;20047;-67
2022/03/22 08:08:43;;;;;;;10.73;5.70;;;;;;;10.56;35.89;101743.22;5114050;28;20679;-67
2022/03/22 08:11:12;;;;;;;9.68;5.20;;;;;;;10.80;35.58;101743.13;5113514;28;20054;-67
2022/03/22 08:13:41;;;;;;;10.00;5.40;;;;;;;11.06;35.49;101736.28;5113895;28;20553;-67
2022/03/22 08:16:10;;;;;;;11.37;5.90;;;;;;;11.19;34.58;101728.16;5110650;28;20039;-67
2022/03/22 08:18:40;;;;;;;14.18;5.68;;;;;;;11.41;34.60;101736.50;5113941;28;20276;-67
2022/03/22 08:21:10;;;;;;;10.30;5.32;;;;;;;11.54;33.96;101727.47;5113482;28;20047;-67
2022/03/22 08:23:39;;;;;;;11.30;5.68;;;;;;;11.54;33.31;101727.47;5113846;28;20146;-67
2022/03/22 08:26:08;;;;;;;11.97;5.50;;;;;;;11.57;32.90;101730.13;5113874;28;20131;-67
2022/03/22 08:28:38;;;;;;;9.80;5.10;;;;;;;11.83;32.93;101721.50;5113640;28;20043;-68
2022/03/22 08:31:06;;;;;;;;;;;;;;;12.14;32.77;101727.44;5100809;28;20040;-67
2022/03/22 08:33:35;;;;;;;7.88;4.10;;;;;;;12.42;32.18;101719.63;5096871;28;19920;-67
2022/03/22 08:36:05;;;;;;;10.73;5.45;;;;;;;12.38;31.79;101722.94;5097156;28;20505;-67
2022/03/22 08:38:36;;;;;;;8.25;5.05;;;;;;;12.51;31.10;101700.22;5097841;28;20032;-67
2022/03/22 08:41:04;;;;;;;9.77;4.85;;;;;;;12.58;31.22;101716.59;5116565;28;20075;-67
2022/03/22 08:43:34;;;;;;;12.30;5.10;;;;;;;13.02;31.22;101721.06;5117147;28;20055;-67
2022/03/22 08:46:05;;;;;;;9.45;4.40;;;;;;;13.11;30.74;101716.16;5117394;28;20040;-67
2022/03/22 08:48:34;;;;;;;8.57;4.55;;;;;;;13.33;30.28;101713.22;5117501;28;20039;-67
2022/03/22 08:51:04;;;;;;;9.82;4.20;;;;;;;13.41;29.44;101718.50;5116911;28;20044;-67
2022/03/22 08:53:35;;;;;;;8.20;4.63;;;;;;;13.43;29.32;101715.13;5115104;28;20508;-67
2022/03/22 08:56:04;;;;;;;7.90;4.30;;;;;;;13.74;29.47;101710.59;5116975;28;20070;-67
2022/03/22 08:58:33;;;;;;;7.53;4.30;;;;;;;13.68;28.82;101711.34;5111078;28;20047;-67
2022/03/22 09:01:02;;;;;;;10.55;4.85;;;;;;;13.82;28.85;101709.88;5112895;28;20054;-67
2022/03/22 09:03:32;;;;;;;8.95;4.47;;;;;;;14.19;27.27;101710.56;5116715;28;20044;-67
2022/03/22 09:08:42;;;;;;;8.90;4.57;;;;;;;14.44;27.76;101713.59;5116502;28;20043;-67
2022/03/22 09:11:11;;;;;;;10.60;4.20;;;;;;;14.93;28.14;101709.19;5116490;28;20048;-67
2022/03/22 09:13:41;;;;;;;6.07;3.33;;;;;;;14.59;27.37;101702.69;5113163;28;20044;-67
2022/03/22 09:16:13;;;;;;;10.02;4.85;;;;;;;14.75;26.88;101695.25;5104949;28;20051;-67
2022/03/22 09:18:46;;;;;;;10.50;4.82;;;;;;;15.06;26.95;101696.53;5095904;28;20055;-67
2022/03/22 09:21:16;;;;;;;9.02;5.15;;;;;;;15.46;28.29;101700.50;5096088;28;20040;-67
2022/03/22 09:23:47;;;;;;;7.30;3.78;;;;;;;15.60;28.21;101690.34;5095981;28;20067;-67
2022/03/22 09:26:16;;;;;;;8.60;4.68;;;;;;;15.85;28.14;101688.06;5095479;28;20048;-67
2022/03/22 09:28:45;;;;;;;10.60;4.70;;;;;;;16.19;27.11;101690.94;5095676;28;20048;-67
2022/03/22 09:31:20;;;;;;;7.68;4.63;;;;;;;15.82;25.80;101693.19;5096126;28;20052;-67
2022/03/22 09:33:49;;;;;;;10.63;5.32;;;;;;;15.99;26.23;101673.59;5099243;28;20583;-67
2022/03/22 09:36:19;;;;;;;9.50;5.47;;;;;;;16.00;25.47;101679.63;5114847;28;20113;-67
2022/03/22 09:38:49;;;;;;;10.40;6.57;;;;;;;15.91;25.06;101677.81;5116222;28;20432;-67
2022/03/22 09:41:18;;;;;;;10.40;6.30;;;;;;;16.01;25.18;101669.31;5116020;28;20379;-67
2022/03/22 09:43:48;;;;;;;11.02;6.03;;;;;;;16.28;25.92;101683.28;5104357;28;20036;-67
2022/03/22 09:46:19;;;;;;;14.15;5.55;;;;;;;16.47;24.78;101674.84;5115079;28;20442;-67
2022/03/22 09:48:50;;;;;;;10.20;5.80;;;;;;;16.32;24.09;101664.41;5112753;28;20138;-67
2022/03/22 09:54:01;;;;;;;11.95;6.68;;;;;;;16.36;24.13;101661.03;5095332;28;20044;-67
2022/03/22 09:56:31;;;;;;;11.35;6.68;;;;;;;16.06;24.62;101662.50;5103928;28;20044;-67
2022/03/22 09:59:01;;;;;;;10.75;6.15;;;;;;;16.59;25.00;101662.94;5097286;28;20044;-67
2022/03/22 10:01:31;;;;;;;12.85;6.90;;;;;;;16.33;24.13;101663.56;5095565;28;20047;-67
2022/03/22 10:04:02;;;;;;;14.38;6.53;;;;;;;16.50;24.15;101655.13;5095236;28;20044;-67
2022/03/22 10:06:32;;;;;;;9.10;6.35;;;;;;;16.75;24.00;101657.00;5100047;28;20040;-67
2022/03/22 10:09:05;;;;;;;13.23;6.78;;;;;;;16.66;23.82;101650.94;5100018;28;20393;-67
2022/03/22 10:11:39;;;;;;;10.95;5.88;;;;;;;16.29;24.44;101651.53;5101139;28;20105;-67
2022/03/22 10:14:09;;;;;;;11.63;6.35;;;;;;;16.77;24.85;101655.31;5095325;28;20135;-68
2022/03/22 10:16:46;;;;;;;11.43;7.22;;;;;;;17.50;25.03;101640.13;5101622;28;20039;-67
2022/03/22 10:19:22;;;;;;;13.70;7.13;;;;;;;17.32;23.37;101633.19;5115205;28;20043;-68
2022/03/22 10:21:53;;;;;;;10.35;6.68;;;;;;;16.89;23.17;101639.06;5115310;28;20043;-68
2022/03/22 10:24:23;;;;;;;12.30;6.05;;;;;;;16.96;23.55;101635.66;5104998;28;20044;-68
2022/03/22 10:26:52;;;;;;;13.00;7.63;;;;;;;17.18;24.58;101640.00;5094420;28;20036;-68
2022/03/22 10:29:21;;;;;;;12.10;6.97;;;;;;;17.72;24.33;101630.72;5094090;28;20086;-68
2022/03/22 10:31:50;;;;;;;11.10;6.85;;;;;;;17.79;24.54;101637.63;5094704;28;20308;-68
2022/03/22 10:34:29;;;;;;;11.85;7.22;;;;;;;17.64;23.25;101641.03;5093575;28;20040;-68
2022/03/22 10:36:59;;;;;;;11.57;7.72;;;;;;;17.68;23.37;101629.00;5094576;28;20040;-68
2022/03/22 10:39:29;;;;;;;;;;;;;;;17.69;22.83;101633.31;5094850;28;20059;-68
2022/03/22 10:42:06;;;;;;;12.48;6.40;;;;;;;18.28;24.29;101634.22;5093716;28;19927;-68
2022/03/22 10:44:37;;;;;;;13.88;7.85;;;;;;;18.18;23.09;101627.31;5106299;28;20481;-68
2022/03/22 10:47:08;;;;;;;11.73;7.47;;;;;;;18.14;22.39;101625.56;5103631;28;20051;-68
2022/03/22 10:49:37;;;;;;;13.18;6.85;;;;;;;18.06;22.30;101625.59;5102629;28;20044;-68
2022/03/22 10:52:20;;;;;;;12.63;7.35;;;;;;;17.84;21.94;101617.81;5103446;28;20040;-69
2022/03/22 10:54:50;;;;;;;10.43;6.50;;;;;;;17.71;21.91;101614.38;5103780;28;20559;-69
2022/03/22 10:57:29;;;;;;;11.55;6.32;;;;;;;18.25;22.50;101613.53;5114550;28;20052;-68
2022/03/22 10:59:59;;;;;;;11.73;7.70;;;;;;;18.66;22.76;101614.34;5115110;28;20055;-68
2022/03/22 11:02:33;;;;;;;12.77;7.40;;;;;;;19.00;22.42;101611.63;5114532;28;20052;-67
2022/03/22 11:05:06;;;;;;;11.20;6.90;;;;;;;18.66;22.48;101601.41;5114431;28;20085;-67
2022/03/22 11:07:37;;;;;;;12.55;7.07;;;;;;;18.23;21.77;101604.91;5114382;28;20047;-67
2022/03/22 11:10:09;;;;;;;12.98;7.45;;;;;;;18.25;21.61;101598.00;5114630;28;20104;-67
2022/03/22 11:12:39;;;;;;;11.35;7.05;;;;;;;18.86;21.56;101592.72;5113565;28;20503;-67
2022/03/22 11:15:10;;;;;;;11.43;7.10;;;;;;;19.18;22.42;101589.09;5108171;28;20071;-67
2022/03/22 11:17:40;;;;;;;12.57;7.13;;;;;;;19.13;21.94;101582.22;5110796;28;20112;-67
2022/03/22 11:20:14;;;;;;;11.95;7.22;;;;;;;19.54;21.58;101575.09;5114063;28;20393;-67
2022/03/22 11:22:50;;;;;;;11.27;6.40;;;;;;;19.25;22.44;101569.19;5112794;28;20044;-67
2022/03/22 11:25:31;;;;;;;12.32;7.13;;;;;;;19.33;21.24;101570.03;5112418;28;20432;-66
2022/03/22 11:28:06;;;;;;;12.50;7.70;;;;;;;19.36;21.34;101570.88;5109274;28;20067;-67
2022/03/22 11:30:37;;;;;;;13.48;7.15;;;;;;;19.27;21.16;101565.72;5102617;28;20135;-67
2022/03/22 11:35:50;;;;;;;10.52;6.47;;;;;;;19.44;20.87;101557.88;5106971;28;20040;-67
2022/03/22 11:38:41;;;;;;;12.02;6.72;;;;;;;19.55;21.27;101550.91;5109465;28;20085;-67
2022/03/22 11:44:13;;;;;;;11.98;6.55;;;;;;;20.08;22.16;101543.50;5093622;28;20044;-67
2022/03/22 11:46:46;;;;;;;12.52;6.70;;;;;;;20.00;21.09;101545.34;5093854;28;20382;-67
2022/03/22 11:49:18;;;;;;;11.95;6.40;;;;;;;19.85;21.13;101542.88;5093794;28;20202;-67
2022/03/22 11:51:49;;;;;;;10.43;6.93;;;;;;;20.38;21.69;101546.72;5093519;28;20055;-67
2022/03/22 11:54:18;;;;;;;13.20;7.10;;;;;;;20.61;21.76;101539.53;5094370;28;20536;-67
2022/03/22 11:56:51;;;;;;;11.85;6.72;;;;;;;20.27;20.50;101538.19;5093360;28;20048;-67
2022/03/22 11:59:22;;;;;;;11.40;6.40;;;;;;;19.44;20.45;101526.81;5093811;28;20097;-67
2022/03/22 12:02:03;;;;;;;10.77;6.53;;;;;;;20.04;21.96;101531.47;5095907;28;20054;-67
2022/03/22 12:04:38;;;;;;;13.10;7.53;;;;;;;20.39;20.90;101517.31;5097877;28;20048;-67
2022/03/22 12:07:09;;;;;;;11.10;6.57;;;;;;;20.32;20.69;101518.25;5097527;28;20047;-67
2022/03/22 12:09:43;;;;;;;11.77;7.43;;;;;;;20.40;20.27;101519.88;5097260;28;20434;-67
2022/03/22 12:12:17;;;;;;;13.00;6.88;;;;;;;20.12;20.15;101512.38;5098240;28;20367;-67
2022/03/22 12:14:48;;;;;;;12.13;6.47;;;;;;;20.00;20.57;101511.63;5097278;28;20052;-67
2022/03/22 12:17:18;;;;;;;10.55;6.80;;;;;;;19.95;20.74;101495.28;5097217;28;20072;-67